Time;durP1;ratioP1;P1;durP2;ratioP2;P2;SDS_P1;SDS_P2;PMS_P1;PMS_P2;Temp;Humidity;BMP_temperature;BMP_pressure;BME280_temperature;BME280_humidity;BME280_pressure;Samples;Min_cycle;Max_cycle;Signal;HPM_P1;HPM_P2
2023/10/16 00:00:30;;;;;;;;;;;20.00;74.50;;;;;;5047989;28;1242;-70
2023/10/16 00:03:01;;;;;;;;;;;20.00;74.50;;;;;;5049286;28;1420;-70
2023/10/16 00:05:31;;;;;;;;;;;20.00;74.50;;;;;;5030852;28;1356;-70
2023/10/16 00:07:56;;;;;;;;;;;20.00;74.50;;;;;;5047095;28;1211;-70
2023/10/16 00:10:22;;;;;;;;;;;20.00;74.50;;;;;;5047244;28;1973;-70
2023/10/16 00:12:49;;;;;;;;;;;20.00;74.50;;;;;;5049494;28;1073;-70
2023/10/16 00:15:16;;;;;;;;;;;19.90;74.50;;;;;;5047499;28;1270;-70
2023/10/16 00:17:43;;;;;;;;;;;20.00;74.50;;;;;;5030228;28;1272;-70
2023/10/16 00:20:16;;;;;;;;;;;20.00;74.50;;;;;;5046303;28;1418;-70
2023/10/16 00:22:44;;;;;;;;;;;20.00;74.50;;;;;;5048500;28;1255;-70
2023/10/16 00:25:10;;;;;;;;;;;20.00;74.50;;;;;;5046038;28;1227;-70
2023/10/16 00:27:37;;;;;;;;;;;20.00;74.50;;;;;;5048624;28;1600;-71
2023/10/16 00:30:07;;;;;;;;;;;20.00;74.50;;;;;;5030066;28;1906;-70
2023/10/16 00:32:36;;;;;;;;;;;20.00;74.50;;;;;;5048679;28;1307;-69
2023/10/16 00:35:03;;;;;;;;;;;20.00;74.50;;;;;;5047974;28;1489;-70
2023/10/16 00:37:31;;;;;;;;;;;20.00;74.50;;;;;;5015204;28;1391;-70
2023/10/16 00:39:57;;;;;;;;;;;19.90;74.40;;;;;;5049315;28;1299;-70
2023/10/16 00:42:23;;;;;;;;;;;20.00;74.50;;;;;;5047002;28;1249;-70
2023/10/16 00:44:51;;;;;;;;;;;20.00;74.50;;;;;;5047628;28;1448;-70
2023/10/16 00:47:16;;;;;;;;;;;19.90;74.40;;;;;;5030005;28;1384;-70
2023/10/16 00:49:42;;;;;;;;;;;20.00;74.50;;;;;;5033464;28;2013;-70
2023/10/16 00:52:08;;;;;;;;;;;20.00;74.50;;;;;;5048951;28;1264;-70
2023/10/16 00:54:37;;;;;;;;;;;20.00;74.50;;;;;;5030745;28;1276;-70
2023/10/16 00:57:07;;;;;;;;;;;20.00;74.50;;;;;;5047546;28;1309;-69
2023/10/16 00:59:35;;;;;;;;;;;20.00;74.50;;;;;;5028427;28;1316;-70
2023/10/16 01:04:32;;;;;;;;;;;20.00;74.50;;;;;;5048180;28;1412;-69
2023/10/16 01:06:57;;;;;;;;;;;20.00;74.50;;;;;;5031304;28;1352;-70
2023/10/16 01:09:23;;;;;;;;;;;20.00;74.50;;;;;;5018030;28;1906;-71
2023/10/16 01:11:49;;;;;;;;;;;20.00;74.50;;;;;;5030071;28;1273;-71
2023/10/16 01:14:14;;;;;;;;;;;20.00;74.50;;;;;;5028926;28;1398;-71
2023/10/16 01:16:40;;;;;;;;;;;20.00;74.50;;;;;;5045236;28;1224;-71
2023/10/16 01:19:06;;;;;;;;;;;20.00;74.50;;;;;;5026978;28;1261;-71
2023/10/16 01:21:32;;;;;;;;;;;20.00;74.50;;;;;;5031483;28;1140;-71
2023/10/16 01:24:03;;;;;;;;;;;20.00;74.50;;;;;;5031471;28;1730;-71
2023/10/16 01:26:29;;;;;;;;;;;19.90;74.40;;;;;;5024566;28;1124;-70
2023/10/16 01:28:54;;;;;;;;;;;20.00;74.50;;;;;;5048197;28;1891;-71
2023/10/16 01:31:21;;;;;;;;;;;20.00;74.50;;;;;;5046193;28;1192;-70
2023/10/16 01:33:47;;;;;;;;;;;19.90;74.40;;;;;;5028462;28;1379;-70
2023/10/16 01:36:13;;;;;;;;;;;20.00;74.50;;;;;;5046296;28;1260;-70
2023/10/16 01:38:39;;;;;;;;;;;19.90;74.40;;;;;;5029806;28;1546;-70
2023/10/16 01:41:05;;;;;;;;;;;20.00;74.50;;;;;;5047644;28;1391;-70
2023/10/16 01:43:31;;;;;;;;;;;20.00;74.50;;;;;;5048065;28;1290;-70
2023/10/16 01:45:59;;;;;;;;;;;19.90;74.40;;;;;;5029863;28;1265;-69
2023/10/16 01:48:28;;;;;;;;;;;19.90;74.40;;;;;;5029759;28;1948;-69
2023/10/16 01:50:53;;;;;;;;;;;19.90;74.40;;;;;;5047904;28;1352;-69
2023/10/16 01:53:25;;;;;;;;;;;20.00;74.50;;;;;;5027352;28;1351;-69
2023/10/16 01:55:57;;;;;;;;;;;20.00;74.50;;;;;;5046518;28;1037;-68
2023/10/16 01:58:30;;;;;;;;;;;20.00;74.50;;;;;;5046533;28;1243;-69
2023/10/16 02:00:56;;;;;;;;;;;20.00;74.50;;;;;;5047927;28;1256;-69
2023/10/16 02:03:23;;;;;;;;;;;20.00;74.50;;;;;;5014860;28;1515;-70
2023/10/16 02:05:48;;;;;;;;;;;20.00;74.50;;;;;;5047996;28;1518;-69
2023/10/16 02:08:14;;;;;;;;;;;20.00;74.50;;;;;;5029785;28;1993;-70
2023/10/16 02:10:40;;;;;;;;;;;20.00;74.50;;;;;;5047791;28;1530;-69
2023/10/16 02:13:06;;;;;;;;;;;20.00;74.50;;;;;;5014634;28;1436;-69
2023/10/16 02:15:36;;;;;;;;;;;19.90;74.40;;;;;;5046003;28;1275;-69
2023/10/16 02:18:03;;;;;;;;;;;20.00;74.50;;;;;;5014127;28;1554;-69
2023/10/16 02:20:31;;;;;;;;;;;20.00;74.50;;;;;;5045729;28;1553;-69
2023/10/16 02:22:58;;;;;;;;;;;20.00;74.50;;;;;;5027629;28;1359;-70
2023/10/16 02:25:23;;;;;;;;;;;20.00;74.50;;;;;;5045982;28;1318;-70
2023/10/16 02:27:50;;;;;;;;;;;20.00;74.50;;;;;;5028757;28;1228;-70
2023/10/16 02:30:28;;;;;;;;;;;20.00;74.50;;;;;;5029726;28;1914;-70
2023/10/16 02:32:59;;;;;;;;;;;20.00;74.50;;;;;;5028278;28;1386;-70
2023/10/16 02:35:24;;;;;;;;;;;20.00;74.50;;;;;;5027580;28;1426;-71
2023/10/16 02:37:53;;;;;;;;;;;20.00;74.50;;;;;;5032092;28;1177;-69
2023/10/16 02:40:25;;;;;;;;;;;20.00;74.50;;;;;;5027561;28;1343;-71
2023/10/16 02:42:56;;;;;;;;;;;19.90;74.40;;;;;;5049856;28;1240;-72
2023/10/16 02:45:24;;;;;;;;;;;20.00;74.50;;;;;;5050589;28;1368;-69
2023/10/16 02:47:50;;;;;;;;;;;19.90;74.40;;;;;;5047869;28;1344;-69
2023/10/16 02:50:16;;;;;;;;;;;20.00;74.50;;;;;;5027685;28;1969;-69
2023/10/16 02:52:41;;;;;;;;;;;20.00;74.50;;;;;;5052027;28;1243;-70
2023/10/16 02:55:07;;;;;;;;;;;20.00;74.50;;;;;;5050868;28;1522;-69
2023/10/16 02:57:33;;;;;;;;;;;20.00;74.50;;;;;;5031236;28;1361;-69
2023/10/16 02:59:58;;;;;;;;;;;20.00;74.50;;;;;;5049351;28;1790;-69
2023/10/16 03:02:26;;;;;;;;;;;20.00;74.50;;;;;;5050778;28;1335;-69
2023/10/16 03:04:54;;;;;;;;;;;20.00;74.50;;;;;;5047371;28;1442;-69
2023/10/16 03:07:20;;;;;;;;;;;20.00;74.50;;;;;;5029217;28;1164;-69
2023/10/16 03:09:47;;;;;;;;;;;20.00;74.50;;;;;;5016575;28;1968;-69
2023/10/16 03:12:13;;;;;;;;;;;19.90;74.40;;;;;;5051198;28;1294;-69
2023/10/16 03:14:45;;;;;;;;;;;19.90;74.40;;;;;;5047756;28;1282;-69
2023/10/16 03:17:22;;;;;;;;;;;19.90;74.40;;;;;;5022618;28;1286;-69
2023/10/16 03:19:48;;;;;;;;;;;19.90;74.40;;;;;;5049453;28;1253;-69
2023/10/16 03:22:15;;;;;;;;;;;19.90;74.40;;;;;;5049310;28;1308;-69
2023/10/16 03:24:40;;;;;;;;;;;20.00;74.50;;;;;;5050209;28;1291;-69
2023/10/16 03:27:08;;;;;;;;;;;20.00;74.50;;;;;;5048668;28;1313;-69
2023/10/16 03:29:37;;;;;;;;;;;20.00;74.50;;;;;;5033040;28;1911;-69
2023/10/16 03:32:03;;;;;;;;;;;20.00;74.50;;;;;;5050016;28;1560;-69
2023/10/16 03:34:31;;;;;;;;;;;19.90;74.40;;;;;;5023516;28;1677;-69
2023/10/16 03:37:03;;;;;;;;;;;20.00;74.50;;;;;;5051687;28;1350;-70
2023/10/16 03:39:31;;;;;;;;;;;20.00;74.50;;;;;;5025168;28;1511;-70
2023/10/16 03:41:57;;;;;;;;;;;20.00;74.50;;;;;;5038658;28;1250;-70
2023/10/16 03:44:26;;;;;;;;;;;20.00;74.50;;;;;;5047695;28;1503;-70
2023/10/16 03:46:52;;;;;;;;;;;19.90;74.40;;;;;;5047689;28;1009;-71
2023/10/16 03:49:20;;;;;;;;;;;20.00;74.50;;;;;;5048570;28;1939;-69
2023/10/16 03:51:46;;;;;;;;;;;20.00;74.50;;;;;;5032142;28;1096;-70
2023/10/16 03:54:14;;;;;;;;;;;19.90;74.40;;;;;;5032956;28;1873;-69
2023/10/16 03:56:39;;;;;;;;;;;20.00;74.50;;;;;;5033489;28;1485;-70
2023/10/16 03:59:05;;;;;;;;;;;20.00;74.50;;;;;;5049539;28;1129;-70
2023/10/16 04:01:35;;;;;;;;;;;20.00;74.50;;;;;;5026915;28;1331;-71
2023/10/16 04:04:07;;;;;;;;;;;20.00;74.50;;;;;;5026822;28;1375;-70
2023/10/16 04:06:39;;;;;;;;;;;20.00;74.50;;;;;;5048936;28;911;-70
2023/10/16 04:09:06;;;;;;;;;;;20.00;75.30;;;;;;5020807;28;1911;-71
2023/10/16 04:11:32;;;;;;;;;;;20.00;74.40;;;;;;5048639;28;1247;-70
2023/10/16 04:13:58;;;;;;;;;;;20.00;74.50;;;;;;5033438;28;1291;-70
2023/10/16 04:18:56;;;;;;;;;;;19.90;74.40;;;;;;5026830;28;1452;-70
2023/10/16 04:24:19;;;;;;;;;;;19.90;74.40;;;;;;5034464;28;1461;-70
2023/10/16 04:26:57;;;;;;;;;;;20.00;74.50;;;;;;5032560;28;1298;-70
2023/10/16 04:29:25;;;;;;;;;;;19.90;74.40;;;;;;5048641;28;1975;-70
2023/10/16 04:36:54;;;;;;;;;;;20.00;74.50;;;;;;5048650;28;1233;-70
2023/10/16 04:42:49;;;;;;;;;;;20.00;74.50;;;;;;5032273;28;1413;-70
2023/10/16 04:50:31;;;;;;;;;;;20.00;74.50;;;;;;5030161;28;1891;-69
2023/10/16 04:58:38;;;;;;;;;;;19.90;74.40;;;;;;5048816;28;953;-70
2023/10/16 05:03:44;;;;;;;;;;;20.00;74.50;;;;;;5047614;28;1299;-69
2023/10/16 05:11:33;;;;;;;;;;;20.00;74.40;;;;;;5030579;28;963;-70
2023/10/16 05:16:36;;;;;;;;;;;20.00;74.40;;;;;;5047463;28;1297;-70
2023/10/16 05:19:15;;;;;;;;;;;20.00;74.30;;;;;;5031663;28;1394;-70
2023/10/16 06:16:18;;;;;;;;;;;20.40;72.80;;;;;;5051109;28;1221;-68
2023/10/16 06:18:44;;;;;;;;;;;20.40;72.70;;;;;;5051413;28;1407;-68
2023/10/16 06:21:09;;;;;;;;;;;20.40;72.60;;;;;;5049924;28;1312;-67
2023/10/16 06:23:42;;;;;;;;;;;20.40;72.60;;;;;;5050267;28;1391;-68
2023/10/16 06:26:10;;;;;;;;;;;20.40;72.60;;;;;;5051465;28;1144;-68
2023/10/16 06:28:47;;;;;;;;;;;20.40;72.50;;;;;;5051073;28;1991;-68
2023/10/16 06:31:24;;;;;;;;;;;20.40;72.50;;;;;;5050575;28;1277;-67
2023/10/16 06:33:53;;;;;;;;;;;20.40;72.50;;;;;;5034012;28;1310;-68
2023/10/16 06:36:24;;;;;;;;;;;20.40;72.50;;;;;;5031129;28;1351;-68
2023/10/16 06:38:52;;;;;;;;;;;20.40;72.50;;;;;;5033360;28;1260;-68
2023/10/16 06:41:18;;;;;;;;;;;20.40;72.50;;;;;;5050872;28;1226;-68
2023/10/16 06:43:47;;;;;;;;;;;20.40;72.50;;;;;;5023631;28;1671;-68
2023/10/16 06:46:25;;;;;;;;;;;20.40;72.50;;;;;;5051089;28;1232;-68
2023/10/16 06:48:50;;;;;;;;;;;20.40;72.50;;;;;;5050330;28;1906;-68
2023/10/16 06:51:16;;;;;;;;;;;20.40;72.50;;;;;;5050230;28;1104;-69
2023/10/16 06:53:43;;;;;;;;;;;20.40;72.50;;;;;;5048593;28;1306;-68
2023/10/16 06:56:08;;;;;;;;;;;20.40;72.50;;;;;;5050027;28;1380;-68
2023/10/16 06:58:34;;;;;;;;;;;20.40;72.50;;;;;;5049994;28;1371;-68
2023/10/16 07:01:01;;;;;;;;;;;20.40;72.50;;;;;;5030332;28;1491;-68
2023/10/16 07:03:28;;;;;;;;;;;20.40;72.50;;;;;;5031538;28;1460;-68
2023/10/16 07:05:53;;;;;;;;;;;20.40;72.50;;;;;;5047922;28;1278;-68
2023/10/16 07:08:19;;;;;;;;;;;20.40;72.50;;;;;;5047308;28;1961;-69
2023/10/16 07:10:51;;;;;;;;;;;20.40;72.60;;;;;;5048419;28;1132;-69
2023/10/16 07:13:26;;;;;;;;;;;20.40;72.60;;;;;;5049240;28;1240;-69
2023/10/16 07:16:02;;;;;;;;;;;20.40;72.70;;;;;;5032656;28;1426;-68
2023/10/16 07:18:28;;;;;;;;;;;20.40;72.60;;;;;;5030447;28;1268;-68
2023/10/16 07:20:59;;;;;;;;;;;20.40;72.60;;;;;;5034873;28;1180;-68
2023/10/16 07:23:34;;;;;;;;;;;20.40;72.70;;;;;;5032165;28;1309;-68
2023/10/16 07:26:00;;;;;;;;;;;20.40;72.70;;;;;;5032027;28;1608;-69
2023/10/16 07:28:27;;;;;;;;;;;20.30;72.70;;;;;;5030793;28;1906;-68
2023/10/16 07:30:56;;;;;;;;;;;20.40;72.70;;;;;;5027495;28;1257;-68
2023/10/16 07:33:22;;;;;;;;;;;20.30;72.70;;;;;;5031407;28;1129;-68
2023/10/16 07:35:48;;;;;;;;;;;20.30;72.70;;;;;;5050290;28;1709;-68
2023/10/16 07:38:15;;;;;;;;;;;20.30;72.80;;;;;;5048291;28;1317;-68
2023/10/16 07:40:40;;;;;;;;;;;20.30;72.80;;;;;;5034240;28;1250;-68
2023/10/16 07:43:06;;;;;;;;;;;20.30;72.80;;;;;;5047517;28;954;-68
2023/10/16 07:45:32;;;;;;;;;;;20.30;72.80;;;;;;5044479;28;1289;-68
2023/10/16 07:48:07;;;;;;;;;;;20.30;72.80;;;;;;5029132;28;1188;-68
2023/10/16 07:50:38;;;;;;;;;;;20.30;72.80;;;;;;5029824;28;1902;-68
2023/10/16 07:53:04;;;;;;;;;;;20.30;72.80;;;;;;5046385;28;982;-68
2023/10/16 07:55:39;;;;;;;;;;;20.30;72.80;;;;;;5047082;28;1276;-68
2023/10/16 07:58:33;;;;;;;;;;;20.30;72.80;;;;;;5032148;28;972;-68
2023/10/16 08:03:46;;;;;;;;;;;20.30;72.90;;;;;;4964462;28;1413;-68
2023/10/16 08:06:16;;;;;;;;;;;20.30;72.90;;;;;;5048669;28;1362;-68
2023/10/16 08:08:48;;;;;;;;;;;20.30;72.90;;;;;;5033110;28;1914;-68
2023/10/16 08:11:18;;;;;;;;;;;20.30;73.70;;;;;;5028816;28;1394;-68
2023/10/16 08:13:47;;;;;;;;;;;20.30;72.90;;;;;;5030472;28;1439;-68
2023/10/16 08:16:18;;;;;;;;;;;20.30;73.00;;;;;;5031661;28;1476;-68
2023/10/16 08:18:47;;;;;;;;;;;20.30;73.00;;;;;;5032326;28;1224;-68
2023/10/16 08:21:25;;;;;;;;;;;20.30;73.00;;;;;;5048869;28;1379;-68
2023/10/16 08:23:53;;;;;;;;;;;20.30;73.10;;;;;;5048187;28;1479;-68
2023/10/16 08:26:28;;;;;;;;;;;20.30;73.10;;;;;;5048553;28;1347;-68
2023/10/16 08:29:11;;;;;;;;;;;20.30;73.10;;;;;;5027719;28;1906;-68
2023/10/16 08:31:41;;;;;;;;;;;20.30;73.10;;;;;;5032771;28;1442;-69
2023/10/16 08:34:07;;;;;;;;;;;20.20;73.10;;;;;;5046003;28;1950;-68
2023/10/16 08:36:32;;;;;;;;;;;20.30;73.10;;;;;;5047806;28;1928;-68
2023/10/16 08:39:08;;;;;;;;;;;20.30;73.10;;;;;;5049004;28;1569;-68
2023/10/16 08:41:42;;;;;;;;;;;20.20;73.10;;;;;;5030357;28;1416;-68
2023/10/16 08:44:24;;;;;;;;;;;20.20;73.10;;;;;;5030103;28;1531;-68
2023/10/16 08:47:32;;;;;;;;;;;20.20;73.10;;;;;;5046228;28;1316;-68
2023/10/16 08:49:39;;;;;;;;;;;20.20;73.10;;;;;;5032622;28;1902;-68
2023/10/16 08:52:11;;;;;;;;;;;20.20;73.20;;;;;;5027605;28;1378;-68
2023/10/16 08:57:22;;;;;;;;;;;20.20;73.20;;;;;;5045960;28;1232;-69
2023/10/16 08:59:51;;;;;;;;;;;20.20;73.20;;;;;;5029276;28;1284;-68
2023/10/16 09:02:19;;;;;;;;;;;20.20;73.20;;;;;;5046855;28;1813;-68
2023/10/16 09:04:48;;;;;;;;;;;20.20;73.20;;;;;;5047075;28;1404;-68
2023/10/16 09:07:16;;;;;;;;;;;20.20;73.20;;;;;;5047159;28;1534;-68
2023/10/16 09:09:48;;;;;;;;;;;20.20;73.20;;;;;;5047333;28;2004;-68
2023/10/16 09:12:28;;;;;;;;;;;20.20;73.30;;;;;;5047803;28;1402;-68
2023/10/16 09:14:54;;;;;;;;;;;20.20;73.30;;;;;;5029706;28;1557;-68
2023/10/16 09:17:23;;;;;;;;;;;20.20;73.30;;;;;;5013289;28;1295;-68
2023/10/16 09:19:53;;;;;;;;;;;20.20;73.40;;;;;;5048338;28;1363;-68
2023/10/16 09:22:20;;;;;;;;;;;20.20;73.40;;;;;;5046512;28;1291;-68
2023/10/16 09:24:47;;;;;;;;;;;20.20;73.40;;;;;;5044740;28;2177;-68
2023/10/16 09:27:22;;;;;;;;;;;20.20;73.40;;;;;;5025058;28;2136;-68
2023/10/16 09:29:53;;;;;;;;;;;20.20;73.40;;;;;;5029742;28;1902;-68
2023/10/16 09:32:22;;;;;;;;;;;20.20;73.40;;;;;;5026353;28;2004;-68
2023/10/16 09:34:50;;;;;;;;;;;20.20;73.40;;;;;;5046345;28;1449;-68
2023/10/16 09:37:16;;;;;;;;;;;20.20;73.40;;;;;;5047677;28;1852;-68
2023/10/16 09:39:46;;;;;;;;;;;20.20;73.40;;;;;;5029156;28;1471;-68
2023/10/16 09:42:11;;;;;;;;;;;20.20;73.40;;;;;;5047579;28;1344;-68
2023/10/16 09:47:28;;;;;;;;;;;20.20;73.40;;;;;;5030483;28;1951;-69
2023/10/16 09:50:00;;;;;;;;;;;20.20;73.40;;;;;;5027662;28;1972;-68
2023/10/16 09:52:29;;;;;;;;;;;20.20;73.50;;;;;;5046510;28;1404;-70
2023/10/16 09:54:56;;;;;;;;;;;20.20;73.50;;;;;;5048171;28;1356;-68
2023/10/16 09:57:27;;;;;;;;;;;20.20;73.50;;;;;;5026670;28;1281;-68
2023/10/16 09:59:54;;;;;;;;;;;20.20;73.50;;;;;;5029983;28;1154;-68
2023/10/16 10:02:19;;;;;;;;;;;20.20;73.50;;;;;;5028940;28;1541;-67
2023/10/16 10:04:49;;;;;;;;;;;20.20;73.50;;;;;;5021730;28;1402;-67
2023/10/16 10:07:34;;;;;;;;;;;20.20;73.50;;;;;;5021319;28;1416;-67
2023/10/16 10:09:59;;;;;;;;;;;20.20;73.60;;;;;;5015419;28;1999;-68
2023/10/16 10:12:43;;;;;;;;;;;20.20;73.50;;;;;;5028060;28;1286;-68
2023/10/16 10:15:26;;;;;;;;;;;20.20;73.50;;;;;;5019840;28;1480;-67
2023/10/16 10:17:54;;;;;;;;;;;20.10;73.60;;;;;;5030258;28;1289;-68
2023/10/16 10:20:39;;;;;;;;;;;20.20;73.60;;;;;;5045740;28;1293;-67
2023/10/16 10:23:06;;;;;;;;;;;20.20;73.60;;;;;;5046724;28;1243;-67
2023/10/16 10:25:38;;;;;;;;;;;20.20;73.60;;;;;;5046112;28;1423;-68
2023/10/16 10:28:11;;;;;;;;;;;20.20;73.70;;;;;;5043047;28;1491;-67
2023/10/16 10:30:43;;;;;;;;;;;20.10;73.60;;;;;;5045430;28;1969;-67
2023/10/16 10:33:10;;;;;;;;;;;20.10;73.60;;;;;;5030189;28;1258;-69
2023/10/16 10:35:39;;;;;;;;;;;20.10;73.60;;;;;;5008954;28;2316;-68
2023/10/16 10:38:29;;;;;;;;;;;20.10;73.60;;;;;;5044959;28;2128;-69
2023/10/16 10:41:04;;;;;;;;;;;20.10;73.70;;;;;;5031566;28;1331;-68
2023/10/16 10:43:48;;;;;;;;;;;20.20;73.60;;;;;;5031886;28;1547;-68
2023/10/16 10:46:14;;;;;;;;;;;20.10;73.60;;;;;;5029827;28;1304;-68
2023/10/16 10:48:41;;;;;;;;;;;20.10;73.60;;;;;;5047041;28;1961;-69
2023/10/16 10:51:13;;;;;;;;;;;20.10;73.60;;;;;;5045886;28;1038;-68
2023/10/16 10:53:52;;;;;;;;;;;20.10;73.60;;;;;;5026828;28;1299;-69
2023/10/16 10:56:20;;;;;;;;;;;20.10;73.70;;;;;;5029180;28;1884;-69
2023/10/16 10:58:46;;;;;;;;;;;20.10;73.70;;;;;;5051449;28;1134;-69
2023/10/16 11:01:52;;;;;;;;;;;20.10;73.70;;;;;;5042981;28;2975;-69
2023/10/16 11:04:15;;;;;;;;;;;20.10;73.70;;;;;;5044267;28;1870;-69
2023/10/16 11:06:52;;;;;;;;;;;20.10;73.70;;;;;;5047478;28;1583;-68
2023/10/16 11:09:18;;;;;;;;;;;20.10;73.70;;;;;;5048655;28;1894;-68
2023/10/16 11:11:47;;;;;;;;;;;20.10;73.70;;;;;;5032537;28;1985;-68
2023/10/16 11:14:13;;;;;;;;;;;20.10;73.70;;;;;;5026928;28;2058;-68
2023/10/16 11:16:42;;;;;;;;;;;20.10;73.70;;;;;;5049519;28;1470;-69
2023/10/16 11:19:09;;;;;;;;;;;20.10;73.70;;;;;;5049536;28;1602;-68
2023/10/16 11:21:39;;;;;;;;;;;20.10;73.70;;;;;;5030438;28;1589;-68
2023/10/16 11:24:05;;;;;;;;;;;20.10;73.70;;;;;;5048860;28;1689;-68
2023/10/16 11:26:32;;;;;;;;;;;20.10;73.70;;;;;;5043851;28;1882;-68
2023/10/16 11:29:00;;;;;;;;;;;20.10;73.70;;;;;;5048155;28;1901;-68
2023/10/16 11:31:25;;;;;;;;;;;20.10;73.90;;;;;;5048737;28;1471;-68
2023/10/16 11:34:11;;;;;;;;;;;20.10;74.00;;;;;;5032214;28;1365;-68
2023/10/16 11:36:38;;;;;;;;;;;20.10;74.00;;;;;;5049512;28;1453;-68
2023/10/16 11:39:06;;;;;;;;;;;20.10;73.90;;;;;;5030773;28;1383;-68
2023/10/16 11:41:32;;;;;;;;;;;20.10;73.90;;;;;;5021267;28;1434;-68
2023/10/16 11:44:01;;;;;;;;;;;20.10;74.00;;;;;;5050275;28;1334;-68
2023/10/16 11:46:30;;;;;;;;;;;20.10;74.00;;;;;;5045189;28;1850;-68
2023/10/16 11:49:17;;;;;;;;;;;20.10;73.90;;;;;;5027935;28;1938;-68
2023/10/16 11:51:45;;;;;;;;;;;20.10;73.90;;;;;;5033029;28;1284;-68
2023/10/16 11:54:11;;;;;;;;;;;20.10;74.00;;;;;;5028546;28;2289;-68
2023/10/16 11:56:36;;;;;;;;;;;20.10;74.00;;;;;;5028668;28;1954;-68
2023/10/16 11:59:03;;;;;;;;;;;20.10;74.00;;;;;;5025165;28;1864;-69
2023/10/16 12:01:30;;;;;;;;;;;20.10;74.00;;;;;;5026504;28;1516;-68
2023/10/16 12:03:56;;;;;;;;;;;20.10;73.90;;;;;;5046554;28;2450;-68
2023/10/16 12:06:21;;;;;;;;;;;20.10;74.00;;;;;;5045980;28;1480;-68
2023/10/16 12:08:47;;;;;;;;;;;20.10;73.90;;;;;;5030863;28;1910;-68
2023/10/16 12:11:14;;;;;;;;;;;20.10;74.00;;;;;;5046797;28;2065;-68
2023/10/16 12:13:40;;;;;;;;;;;20.10;74.00;;;;;;5047870;28;1621;-68
2023/10/16 12:16:06;;;;;;;;;;;20.10;74.00;;;;;;5045247;28;1256;-68
2023/10/16 12:18:31;;;;;;;;;;;20.10;74.00;;;;;;5047175;28;1577;-68
2023/10/16 12:21:04;;;;;;;;;;;20.10;74.00;;;;;;5046147;28;1716;-68
2023/10/16 12:23:39;;;;;;;;;;;20.10;74.00;;;;;;5024529;28;1463;-68
2023/10/16 12:26:05;;;;;;;;;;;20.10;74.00;;;;;;5044667;28;1444;-68
2023/10/16 12:28:33;;;;;;;;;;;20.10;74.00;;;;;;5030194;28;1898;-68
2023/10/16 12:30:59;;;;;;;;;;;20.10;74.00;;;;;;5045958;28;1426;-68
2023/10/16 12:33:27;;;;;;;;;;;20.10;74.00;;;;;;5047285;28;2086;-67
2023/10/16 12:35:55;;;;;;;;;;;20.10;74.00;;;;;;5015520;28;1444;-67
2023/10/16 12:38:23;;;;;;;;;;;20.10;74.00;;;;;;5029451;28;1344;-67
2023/10/16 12:40:53;;;;;;;;;;;20.10;74.00;;;;;;5048065;28;1107;-67
2023/10/16 12:43:25;;;;;;;;;;;20.10;74.00;;;;;;5027949;28;1384;-67
2023/10/16 12:45:51;;;;;;;;;;;20.10;74.00;;;;;;5046324;28;1444;-67
2023/10/16 12:48:17;;;;;;;;;;;20.10;74.00;;;;;;5014542;28;1350;-67
2023/10/16 12:50:47;;;;;;;;;;;20.10;74.00;;;;;;5027615;28;1967;-67
2023/10/16 12:53:12;;;;;;;;;;;20.10;74.00;;;;;;5015749;28;1581;-67
2023/10/16 12:55:40;;;;;;;;;;;20.00;73.90;;;;;;5030339;28;1339;-67
2023/10/16 12:58:10;;;;;;;;;;;20.10;74.00;;;;;;5047069;28;1302;-67
2023/10/16 13:00:39;;;;;;;;;;;20.10;74.00;;;;;;5048839;28;1228;-67
2023/10/16 13:03:13;;;;;;;;;;;20.10;74.00;;;;;;5030686;28;1541;-67
2023/10/16 13:05:39;;;;;;;;;;;20.10;74.00;;;;;;5048868;28;1481;-67
2023/10/16 13:08:07;;;;;;;;;;;20.10;74.00;;;;;;5031048;28;1336;-67
2023/10/16 13:10:32;;;;;;;;;;;20.00;74.00;;;;;;5047253;28;1910;-67
2023/10/16 13:12:59;;;;;;;;;;;20.00;74.00;;;;;;5049890;28;1305;-68
2023/10/16 13:15:25;;;;;;;;;;;20.00;74.00;;;;;;5048343;28;1283;-68
2023/10/16 13:17:52;;;;;;;;;;;20.00;74.00;;;;;;5049248;28;1161;-68
2023/10/16 13:20:17;;;;;;;;;;;20.10;74.10;;;;;;5030935;28;1576;-68
2023/10/16 13:22:43;;;;;;;;;;;20.10;74.00;;;;;;5048994;28;890;-68
2023/10/16 13:25:12;;;;;;;;;;;20.00;74.00;;;;;;5045644;28;1279;-68
2023/10/16 13:27:40;;;;;;;;;;;20.00;74.00;;;;;;5045841;28;998;-68
2023/10/16 13:30:06;;;;;;;;;;;20.00;74.10;;;;;;5048136;28;1914;-68
2023/10/16 13:32:32;;;;;;;;;;;20.00;74.00;;;;;;5028911;28;1130;-68
2023/10/16 13:35:00;;;;;;;;;;;20.00;74.00;;;;;;5046360;28;1362;-68
2023/10/16 13:37:25;;;;;;;;;;;20.00;74.10;;;;;;5044380;28;1312;-69
2023/10/16 13:39:52;;;;;;;;;;;20.00;74.00;;;;;;5029505;28;1391;-68
2023/10/16 13:42:20;;;;;;;;;;;20.00;74.00;;;;;;5048067;28;1411;-68
2023/10/16 13:44:46;;;;;;;;;;;20.00;74.00;;;;;;5047006;28;1296;-68
2023/10/16 13:47:13;;;;;;;;;;;20.00;74.10;;;;;;5028203;28;1267;-69
2023/10/16 13:49:40;;;;;;;;;;;20.00;74.10;;;;;;5026577;28;1952;-68
2023/10/16 13:52:08;;;;;;;;;;;20.00;74.10;;;;;;5029418;28;1956;-68
2023/10/16 13:54:36;;;;;;;;;;;20.00;74.10;;;;;;5044849;28;1375;-67
2023/10/16 13:57:01;;;;;;;;;;;20.00;74.10;;;;;;5048163;28;1246;-68
2023/10/16 13:59:27;;;;;;;;;;;20.00;74.10;;;;;;5046918;28;1565;-68
2023/10/16 14:01:53;;;;;;;;;;;20.00;74.10;;;;;;5046829;28;1354;-68
2023/10/16 14:04:21;;;;;;;;;;;20.00;74.10;;;;;;5046794;28;1312;-68
2023/10/16 14:06:51;;;;;;;;;;;20.00;74.10;;;;;;5047194;28;1245;-68
2023/10/16 14:09:20;;;;;;;;;;;20.00;74.10;;;;;;5046361;28;1972;-68
2023/10/16 14:11:49;;;;;;;;;;;20.00;74.10;;;;;;5029367;28;1275;-68
2023/10/16 14:14:20;;;;;;;;;;;20.00;74.10;;;;;;5048136;28;1376;-68
2023/10/16 14:16:46;;;;;;;;;;;20.00;74.10;;;;;;5025893;28;1318;-69
2023/10/16 14:19:13;;;;;;;;;;;20.00;74.10;;;;;;5028019;28;1271;-68
2023/10/16 14:21:40;;;;;;;;;;;20.00;74.10;;;;;;5047810;28;1293;-68
2023/10/16 14:24:08;;;;;;;;;;;20.00;74.20;;;;;;5047167;28;1361;-68
2023/10/16 14:26:34;;;;;;;;;;;20.00;74.20;;;;;;5020107;28;1398;-68
2023/10/16 14:29:00;;;;;;;;;;;20.00;74.20;;;;;;5050420;28;1906;-68
2023/10/16 14:31:28;;;;;;;;;;;20.00;74.10;;;;;;5051812;28;1361;-68
2023/10/16 14:33:53;;;;;;;;;;;20.00;74.10;;;;;;5050698;28;1340;-68
2023/10/16 14:36:19;;;;;;;;;;;20.00;74.10;;;;;;5032847;28;1369;-68
2023/10/16 14:38:44;;;;;;;;;;;20.00;74.10;;;;;;5050528;28;1563;-68
2023/10/16 14:41:17;;;;;;;;;;;20.00;74.10;;;;;;5049311;28;1326;-68
2023/10/16 14:43:45;;;;;;;;;;;20.00;74.10;;;;;;5047185;28;1418;-68
2023/10/16 14:46:10;;;;;;;;;;;20.00;74.10;;;;;;5050062;28;1945;-69
2023/10/16 14:48:42;;;;;;;;;;;20.00;74.20;;;;;;5047017;28;1563;-69
2023/10/16 14:51:13;;;;;;;;;;;20.00;74.20;;;;;;5048465;28;1301;-69
2023/10/16 14:53:39;;;;;;;;;;;20.00;74.20;;;;;;5031807;28;1381;-68
2023/10/16 14:56:06;;;;;;;;;;;20.00;74.20;;;;;;5050337;28;1111;-69
2023/10/16 14:58:31;;;;;;;;;;;20.00;74.20;;;;;;5050289;28;1314;-68
2023/10/16 15:00:57;;;;;;;;;;;20.00;74.20;;;;;;5051243;28;1551;-68
2023/10/16 15:03:22;;;;;;;;;;;20.00;74.20;;;;;;5051756;28;1340;-69
2023/10/16 15:05:49;;;;;;;;;;;20.00;74.20;;;;;;5050357;28;1283;-68
2023/10/16 15:08:15;;;;;;;;;;;20.00;74.20;;;;;;5050373;28;1426;-68
2023/10/16 15:10:43;;;;;;;;;;;20.00;74.20;;;;;;5048324;28;1918;-69
2023/10/16 15:13:12;;;;;;;;;;;20.00;74.20;;;;;;5050258;28;1504;-68
2023/10/16 15:15:39;;;;;;;;;;;20.00;74.20;;;;;;5050250;28;1329;-69
2023/10/16 15:18:05;;;;;;;;;;;20.00;74.20;;;;;;5049979;28;1303;-68
2023/10/16 15:20:31;;;;;;;;;;;20.00;74.20;;;;;;5049995;28;1389;-68
2023/10/16 15:22:56;;;;;;;;;;;20.00;74.20;;;;;;5051419;28;1295;-68
2023/10/16 15:25:22;;;;;;;;;;;20.00;74.20;;;;;;5047677;28;1438;-68
2023/10/16 15:27:47;;;;;;;;;;;20.00;74.20;;;;;;5049456;28;1178;-68
2023/10/16 15:30:13;;;;;;;;;;;20.00;74.20;;;;;;5050027;28;1973;-68
2023/10/16 15:32:39;;;;;;;;;;;20.00;74.20;;;;;;5047599;28;1535;-68
2023/10/16 15:35:08;;;;;;;;;;;20.00;74.20;;;;;;5050478;28;1382;-69
2023/10/16 15:37:34;;;;;;;;;;;20.00;74.30;;;;;;5050846;28;1282;-68
2023/10/16 15:40:00;;;;;;;;;;;20.00;74.20;;;;;;5041198;28;1632;-69
2023/10/16 15:42:25;;;;;;;;;;;20.00;74.20;;;;;;5048947;28;1332;-70
2023/10/16 15:44:50;;;;;;;;;;;20.00;74.20;;;;;;5046190;28;1413;-70
2023/10/16 15:47:16;;;;;;;;;;;20.00;74.20;;;;;;5049255;28;1244;-70
2023/10/16 15:49:42;;;;;;;;;;;20.00;74.20;;;;;;5049689;28;1929;-70
2023/10/16 15:52:09;;;;;;;;;;;20.00;74.20;;;;;;5048841;28;1591;-71
2023/10/16 15:54:34;;;;;;;;;;;20.00;74.10;;;;;;5049124;28;1421;-71
2023/10/16 15:57:00;;;;;;;;;;;20.00;73.70;;;;;;5028275;28;1240;-71
2023/10/16 15:59:26;;;;;;;;;;;20.00;73.60;;;;;;5048921;28;1406;-70
2023/10/16 16:01:53;;;;;;;;;;;20.00;73.70;;;;;;5047270;28;1096;-71
2023/10/16 16:04:20;;;;;;;;;;;20.00;73.70;;;;;;5045617;28;1503;-71
2023/10/16 16:06:46;;;;;;;;;;;20.00;73.70;;;;;;5032428;28;1285;-71
2023/10/16 16:09:13;;;;;;;;;;;20.00;73.80;;;;;;5047883;28;1975;-71
2023/10/16 16:11:44;;;;;;;;;;;20.00;73.80;;;;;;5047637;28;1389;-71
2023/10/16 16:14:12;;;;;;;;;;;20.00;73.80;;;;;;5046274;28;1383;-71
2023/10/16 16:16:38;;;;;;;;;;;20.00;73.90;;;;;;5047341;28;1120;-71
2023/10/16 16:19:05;;;;;;;;;;;20.00;73.90;;;;;;5047007;28;1372;-71